Terminal Aerodrome Forecast
Issued by NWS

Current Version | Previous Version | Text Only | Print | Product List | Glossary On
Versions: 1 2 3 4 5 6 7 8 9 10 11 12 13 14
000
FTUS44 KCRP 231100
TAFALI
TAF
KALI 231128Z 2312/2412 35005KT P6SM BKN100
      TEMPO 2312/2315 5SM BR SCT030 OVC100
     FM231500 03007KT P6SM BKN030 OVC100
     FM231800 07012KT P6SM SCT040 BKN150
     FM240300 VRB03KT P6SM SCT150=

USA.gov is the U.S. government's official web portal to all federal, state and local government web resources and services.